createdAt,value
2023-01-19T00:00:02.283Z,92.76
2023-01-19T00:00:14.105Z,92.76
2023-01-19T00:00:24.905Z,92.76
2023-01-19T00:00:37.891Z,92.76
2023-01-19T00:00:49.642Z,92.76
2023-01-19T00:01:01.357Z,92.76
2023-01-19T00:01:13.142Z,92.76
2023-01-19T00:01:23.918Z,92.76
2023-01-19T00:01:36.370Z,92.76
2023-01-19T00:01:47.117Z,92.76
2023-01-19T00:01:58.865Z,92.65
2023-01-19T00:02:11.084Z,92.65
2023-01-19T00:02:22.940Z,92.54
2023-01-19T00:02:33.797Z,92.54
2023-01-19T00:02:46.061Z,92.54
2023-01-19T00:02:56.900Z,92.44
2023-01-19T00:03:08.682Z,92.48
2023-01-19T00:03:19.478Z,92.48
2023-01-19T00:03:30.258Z,92.48
2023-01-19T00:03:41.036Z,92.48
2023-01-19T00:03:51.791Z,92.48
2023-01-19T00:04:04.006Z,92.48
2023-01-19T00:04:15.741Z,92.48
2023-01-19T00:04:26.491Z,92.58
2023-01-19T00:04:38.239Z,92.58
2023-01-19T00:04:49.028Z,92.69
2023-01-19T00:04:59.788Z,92.80
2023-01-19T00:05:10.638Z,92.80
2023-01-19T00:05:24.001Z,92.90
2023-01-19T00:05:34.798Z,92.90
2023-01-19T00:05:45.548Z,93.01
2023-01-19T00:05:56.363Z,93.01
2023-01-19T00:06:07.183Z,93.11
2023-01-19T00:06:18.046Z,93.11
2023-01-19T00:06:29.746Z,93.11
2023-01-19T00:06:42.758Z,93.11
2023-01-19T00:06:54.974Z,93.11
2023-01-19T00:07:07.310Z,93.11
2023-01-19T00:07:20.527Z,93.22
2023-01-19T00:07:31.333Z,93.43
2023-01-19T00:07:42.085Z,93.49
2023-01-19T00:07:52.851Z,93.53
2023-01-19T00:08:03.597Z,93.49
2023-01-19T00:08:14.368Z,93.49
2023-01-19T00:08:26.802Z,93.49
2023-01-19T00:08:39.800Z,93.49
2023-01-19T00:08:52.280Z,93.38
2023-01-19T00:09:03.028Z,93.38
2023-01-19T00:09:15.481Z,93.43
2023-01-19T00:09:26.421Z,93.32
2023-01-19T00:09:37.222Z,93.22
2023-01-19T00:09:48.988Z,93.22
2023-01-19T00:09:59.730Z,93.11
2023-01-19T00:10:10.542Z,93.11
2023-01-19T00:10:21.360Z,93.01
2023-01-19T00:10:32.130Z,93.01
2023-01-19T00:10:42.913Z,92.90
2023-01-19T00:10:53.783Z,92.90
2023-01-19T00:11:04.544Z,92.80
2023-01-19T00:11:17.503Z,92.80
2023-01-19T00:11:29.727Z,92.80
2023-01-19T00:11:40.471Z,92.69
2023-01-19T00:11:52.626Z,92.69
2023-01-19T00:12:05.321Z,92.69
2023-01-19T00:12:17.778Z,92.69
2023-01-19T00:12:28.564Z,92.80
2023-01-19T00:12:41.090Z,92.80
2023-01-19T00:12:51.808Z,92.80
2023-01-19T00:13:02.905Z,92.90
2023-01-19T00:13:13.994Z,93.11
2023-01-19T00:13:24.710Z,93.22
2023-01-19T00:13:36.985Z,93.32
2023-01-19T00:13:47.740Z,93.43
2023-01-19T00:14:00.213Z,93.43
2023-01-19T00:14:10.981Z,93.53
2023-01-19T00:14:21.797Z,93.53
2023-01-19T00:14:34.229Z,93.64
2023-01-19T00:14:45.969Z,93.64
2023-01-19T00:14:57.713Z,93.64
2023-01-19T00:15:09.449Z,93.64
2023-01-19T00:15:20.215Z,93.64
2023-01-19T00:15:30.961Z,93.64
2023-01-19T00:15:42.697Z,93.64
2023-01-19T00:15:55.137Z,93.53
2023-01-19T00:16:05.895Z,93.53
2023-01-19T00:16:16.667Z,93.53
2023-01-19T00:16:28.431Z,93.43
2023-01-19T00:16:39.236Z,93.43
2023-01-19T00:16:50.014Z,93.43
2023-01-19T00:17:00.778Z,93.32
2023-01-19T00:17:13.728Z,93.32
2023-01-19T00:17:27.958Z,93.22
2023-01-19T00:17:40.672Z,93.22
2023-01-19T00:17:51.473Z,93.22
2023-01-19T00:18:03.177Z,93.11
2023-01-19T00:18:13.940Z,93.11
2023-01-19T00:18:25.661Z,93.11
2023-01-19T00:18:36.421Z,93.01
2023-01-19T00:18:47.150Z,93.01
2023-01-19T00:18:59.616Z,92.90
2023-01-19T00:19:12.110Z,92.90
2023-01-19T00:19:22.929Z,92.80
2023-01-19T00:19:34.687Z,92.69
2023-01-19T00:19:47.165Z,92.69
2023-01-19T00:19:57.925Z,92.63
2023-01-19T00:20:08.679Z,92.63
2023-01-19T00:20:21.113Z,92.63
2023-01-19T00:20:31.932Z,92.63
2023-01-19T00:20:42.741Z,92.63
2023-01-19T00:20:53.497Z,92.63
2023-01-19T00:21:04.253Z,92.63
2023-01-19T00:21:15.040Z,92.63
2023-01-19T00:21:26.809Z,92.63
2023-01-19T00:21:37.589Z,92.63
2023-01-19T00:21:48.389Z,92.63
2023-01-19T00:21:59.185Z,92.63
2023-01-19T00:22:09.940Z,92.63
2023-01-19T00:22:22.208Z,92.73
2023-01-19T00:22:33.009Z,92.73
2023-01-19T00:22:43.760Z,92.73
2023-01-19T00:22:57.250Z,92.73
2023-01-19T00:23:09.151Z,92.84
2023-01-19T00:23:20.862Z,92.84
2023-01-19T00:23:32.604Z,92.84
2023-01-19T00:23:45.042Z,92.94
2023-01-19T00:23:56.794Z,93.05
2023-01-19T00:24:09.254Z,93.15
2023-01-19T00:24:19.991Z,93.15
2023-01-19T00:24:31.754Z,93.15
2023-01-19T00:24:43.987Z,93.15
2023-01-19T00:24:55.668Z,93.15
2023-01-19T00:25:08.114Z,93.05
2023-01-19T00:25:19.827Z,93.09
2023-01-19T00:25:30.603Z,92.99
2023-01-19T00:25:41.340Z,92.99
2023-01-19T00:25:53.790Z,92.99
2023-01-19T00:26:04.580Z,92.99
2023-01-19T00:26:16.294Z,92.99
2023-01-19T00:26:29.019Z,92.99
2023-01-19T00:26:41.492Z,92.99
2023-01-19T00:26:53.232Z,92.99
2023-01-19T00:27:04.973Z,92.99
2023-01-19T00:27:15.741Z,92.99
2023-01-19T00:27:26.592Z,92.99
2023-01-19T00:27:38.294Z,92.88
2023-01-19T00:27:50.773Z,92.88
2023-01-19T00:28:03.004Z,92.77
2023-01-19T00:28:13.778Z,92.77
2023-01-19T00:28:25.514Z,92.77
2023-01-19T00:28:37.279Z,92.67
2023-01-19T00:28:48.971Z,92.67
2023-01-19T00:28:59.743Z,92.67
2023-01-19T00:29:10.542Z,92.57
2023-01-19T00:29:21.271Z,92.57
2023-01-19T00:29:32.009Z,92.57
2023-01-19T00:29:42.751Z,92.57
2023-01-19T00:29:54.351Z,92.67
2023-01-19T00:30:05.123Z,92.67
2023-01-19T00:30:15.931Z,92.77
2023-01-19T00:30:26.727Z,92.88
2023-01-19T00:30:38.682Z,92.99
2023-01-19T00:30:49.464Z,93.09
2023-01-19T00:31:01.210Z,93.19
2023-01-19T00:31:12.031Z,93.30
2023-01-19T00:31:22.812Z,93.41
2023-01-19T00:31:36.484Z,93.62
2023-01-19T00:31:49.011Z,93.83
2023-01-19T00:31:59.817Z,94.04
2023-01-19T00:32:11.545Z,94.15
2023-01-19T00:32:23.254Z,94.25
2023-01-19T00:32:35.734Z,94.35
2023-01-19T00:32:46.540Z,94.35
2023-01-19T00:32:58.897Z,94.46
2023-01-19T00:33:11.825Z,94.57
2023-01-19T00:33:22.643Z,94.67
2023-01-19T00:33:33.421Z,94.78
2023-01-19T00:33:44.160Z,94.78
2023-01-19T00:33:57.313Z,94.78
2023-01-19T00:34:09.780Z,94.89
2023-01-19T00:34:20.573Z,94.78
2023-01-19T00:34:33.013Z,94.78
2023-01-19T00:34:43.781Z,94.78
2023-01-19T00:34:55.506Z,94.78
2023-01-19T00:35:06.253Z,94.78
2023-01-19T00:35:18.716Z,94.78
2023-01-19T00:35:30.472Z,94.67
2023-01-19T00:35:41.253Z,94.67
2023-01-19T00:35:53.002Z,94.67
2023-01-19T00:36:03.778Z,94.67
2023-01-19T00:36:15.509Z,94.67
2023-01-19T00:36:28.728Z,94.67
2023-01-19T00:36:40.503Z,94.57
2023-01-19T00:36:51.273Z,94.57
2023-01-19T00:37:02.034Z,94.57
2023-01-19T00:37:12.795Z,94.57
2023-01-19T00:37:23.555Z,94.57
2023-01-19T00:37:35.273Z,94.67
2023-01-19T00:37:46.151Z,94.67
2023-01-19T00:37:56.927Z,94.78
2023-01-19T00:38:09.916Z,94.89
2023-01-19T00:38:23.143Z,94.99
2023-01-19T00:38:34.913Z,95.09
2023-01-19T00:38:45.681Z,95.20
2023-01-19T00:38:58.170Z,95.20
2023-01-19T00:39:08.931Z,95.31
2023-01-19T00:39:19.674Z,95.41
2023-01-19T00:39:31.391Z,95.37
2023-01-19T00:39:44.082Z,95.37
2023-01-19T00:39:54.796Z,95.37
2023-01-19T00:40:05.585Z,95.37
2023-01-19T00:40:18.122Z,95.37
2023-01-19T00:40:29.922Z,95.26
2023-01-19T00:40:40.707Z,95.26
2023-01-19T00:40:52.459Z,95.26
2023-01-19T00:41:03.249Z,95.26
2023-01-19T00:41:15.000Z,95.26
2023-01-19T00:41:25.795Z,95.15
2023-01-19T00:41:36.617Z,95.15
2023-01-19T00:41:48.335Z,95.15
2023-01-19T00:42:00.792Z,95.15
2023-01-19T00:42:11.557Z,95.05
2023-01-19T00:42:22.333Z,94.95
2023-01-19T00:42:34.586Z,94.95
2023-01-19T00:42:45.329Z,94.84
2023-01-19T00:42:56.144Z,94.89
2023-01-19T00:43:06.932Z,94.89
2023-01-19T00:43:19.373Z,94.78
2023-01-19T00:43:30.161Z,94.67
2023-01-19T00:43:41.967Z,94.67
2023-01-19T00:43:53.665Z,94.57
2023-01-19T00:44:05.401Z,94.57
2023-01-19T00:44:17.164Z,94.57
2023-01-19T00:44:27.951Z,94.46
2023-01-19T00:44:39.680Z,94.46
2023-01-19T00:44:51.423Z,94.46
2023-01-19T00:45:02.184Z,94.46
2023-01-19T00:45:12.934Z,94.46
2023-01-19T00:45:26.205Z,94.46
2023-01-19T00:45:38.366Z,94.46
2023-01-19T00:45:49.210Z,94.46
2023-01-19T00:46:00.977Z,94.46
2023-01-19T00:46:11.790Z,94.35
2023-01-19T00:46:22.593Z,94.35
2023-01-19T00:46:35.096Z,94.25
2023-01-19T00:46:46.834Z,94.25
2023-01-19T00:46:59.283Z,94.15
2023-01-19T00:47:10.089Z,94.15
2023-01-19T00:47:20.815Z,94.15
2023-01-19T00:47:32.518Z,94.04
2023-01-19T00:47:44.273Z,94.04
2023-01-19T00:47:55.025Z,93.93
2023-01-19T00:48:05.761Z,93.93
2023-01-19T00:48:17.473Z,93.83
2023-01-19T00:48:30.699Z,93.83
2023-01-19T00:48:43.156Z,93.87
2023-01-19T00:48:54.948Z,93.77
2023-01-19T00:49:05.712Z,93.77
2023-01-19T00:49:16.443Z,93.77
2023-01-19T00:49:28.182Z,93.77
2023-01-19T00:49:38.983Z,93.77
2023-01-19T00:49:49.768Z,93.87
2023-01-19T00:50:00.554Z,93.87
2023-01-19T00:50:12.382Z,93.98
2023-01-19T00:50:23.128Z,93.87
2023-01-19T00:50:36.898Z,93.87
2023-01-19T00:50:47.675Z,93.87
2023-01-19T00:50:59.885Z,93.98
2023-01-19T00:51:10.666Z,93.87
2023-01-19T00:51:21.457Z,93.87
2023-01-19T00:51:32.203Z,93.87
2023-01-19T00:51:42.976Z,93.87
2023-01-19T00:51:53.718Z,93.87
2023-01-19T00:52:04.459Z,93.87
2023-01-19T00:52:17.048Z,93.87
2023-01-19T00:52:27.811Z,93.98
2023-01-19T00:52:39.814Z,93.98
2023-01-19T00:52:50.601Z,93.87
2023-01-19T00:53:03.096Z,93.98
2023-01-19T00:53:15.691Z,93.98
2023-01-19T00:53:27.419Z,93.98
2023-01-19T00:53:39.265Z,94.08
2023-01-19T00:53:50.017Z,94.29
2023-01-19T00:54:02.503Z,94.51
2023-01-19T00:54:13.264Z,94.71
2023-01-19T00:54:24.009Z,94.93
2023-01-19T00:54:35.757Z,95.03
2023-01-19T00:54:47.528Z,95.14
2023-01-19T00:54:58.341Z,95.24
2023-01-19T00:55:11.528Z,95.35
2023-01-19T00:55:24.783Z,95.35
2023-01-19T00:55:35.582Z,95.45
2023-01-19T00:55:48.507Z,95.45
2023-01-19T00:56:00.259Z,95.56
2023-01-19T00:56:10.989Z,95.62
2023-01-19T00:56:21.788Z,95.73
2023-01-19T00:56:32.546Z,95.83
2023-01-19T00:56:43.459Z,96.04
2023-01-19T00:56:56.671Z,96.04
2023-01-19T00:57:09.108Z,96.15
2023-01-19T00:57:22.315Z,96.15
2023-01-19T00:57:34.784Z,96.15
2023-01-19T00:57:46.990Z,96.15
2023-01-19T00:57:58.714Z,96.15
2023-01-19T00:58:10.975Z,96.15
2023-01-19T00:58:21.728Z,96.25
2023-01-19T00:58:32.494Z,96.25
2023-01-19T00:58:43.275Z,96.21
2023-01-19T00:58:55.805Z,96.21
2023-01-19T00:59:07.541Z,96.21
2023-01-19T00:59:18.335Z,96.21
2023-01-19T00:59:29.124Z,96.21
2023-01-19T00:59:39.906Z,96.31
2023-01-19T00:59:51.620Z,96.31
2023-01-19T01:00:02.411Z,96.31
2023-01-19T01:00:14.906Z,96.31
2023-01-19T01:00:27.417Z,96.21
2023-01-19T01:00:39.926Z,96.21
2023-01-19T01:00:51.772Z,96.21
2023-01-19T01:01:02.597Z,96.11
2023-01-19T01:01:15.246Z,96.17
2023-01-19T01:01:44.945Z,96.17
2023-01-19T01:01:45.057Z,96.17
2023-01-19T01:01:59.029Z,96.06
2023-01-19T01:02:11.795Z,96.06
2023-01-19T01:02:23.817Z,95.95
2023-01-19T01:02:35.998Z,95.95
2023-01-19T01:02:46.901Z,95.85
2023-01-19T01:02:59.934Z,95.85
2023-01-19T01:03:12.003Z,95.75
2023-01-19T01:03:23.842Z,95.75
2023-01-19T01:03:36.373Z,95.75
2023-01-19T01:03:48.137Z,95.75
2023-01-19T01:04:01.406Z,95.64
2023-01-19T01:04:13.688Z,95.64
2023-01-19T01:04:24.457Z,95.64
2023-01-19T01:04:36.985Z,95.64
2023-01-19T01:04:48.956Z,95.53
2023-01-19T01:04:59.747Z,95.53
2023-01-19T01:05:11.524Z,95.53
2023-01-19T01:05:22.401Z,95.53
2023-01-19T01:05:33.156Z,95.43
2023-01-19T01:05:45.392Z,95.43
2023-01-19T01:05:56.246Z,95.43
2023-01-19T01:06:07.083Z,95.43
2023-01-19T01:06:17.872Z,95.32
2023-01-19T01:06:29.829Z,95.32
2023-01-19T01:06:41.616Z,95.32
2023-01-19T01:06:54.099Z,95.32
2023-01-19T01:07:05.815Z,95.32
2023-01-19T01:07:17.636Z,95.22
2023-01-19T01:07:29.376Z,95.22
2023-01-19T01:07:41.099Z,95.22
2023-01-19T01:07:51.838Z,95.22
2023-01-19T01:08:02.578Z,95.22
2023-01-19T01:08:14.369Z,95.22
2023-01-19T01:08:25.127Z,95.18
2023-01-19T01:08:35.918Z,95.18
2023-01-19T01:08:46.655Z,95.18
2023-01-19T01:08:57.417Z,95.18
2023-01-19T01:09:08.275Z,95.07
2023-01-19T01:09:19.007Z,95.07
2023-01-19T01:09:32.132Z,95.07
2023-01-19T01:09:42.866Z,95.07
2023-01-19T01:09:53.616Z,95.07
2023-01-19T01:10:04.378Z,95.07
2023-01-19T01:10:16.146Z,95.07
2023-01-19T01:10:26.917Z,94.96
2023-01-19T01:10:37.695Z,94.96
2023-01-19T01:10:50.407Z,94.96
2023-01-19T01:11:02.120Z,94.96
2023-01-19T01:11:14.857Z,94.86
2023-01-19T01:11:25.636Z,94.86
2023-01-19T01:11:36.448Z,94.86
2023-01-19T01:11:48.980Z,94.86
2023-01-19T01:11:59.895Z,94.86
2023-01-19T01:12:10.699Z,94.86
2023-01-19T01:12:23.236Z,94.86
2023-01-19T01:12:35.511Z,94.86
2023-01-19T01:13:19.983Z,94.86
2023-01-19T01:13:21.023Z,94.86
2023-01-19T01:13:21.323Z,94.86
2023-01-19T01:13:34.528Z,94.86
2023-01-19T01:13:46.288Z,94.76
2023-01-19T01:13:57.187Z,94.82
2023-01-19T01:14:09.758Z,94.71
2023-01-19T01:14:20.508Z,94.71
2023-01-19T01:14:33.372Z,94.71
2023-01-19T01:14:45.188Z,94.60
2023-01-19T01:14:55.926Z,94.60
2023-01-19T01:15:06.786Z,94.60
2023-01-19T01:15:18.583Z,94.60
2023-01-19T01:15:29.396Z,94.50
2023-01-19T01:15:41.158Z,94.40
2023-01-19T01:15:51.973Z,94.40
2023-01-19T01:16:02.709Z,94.29
2023-01-19T01:16:13.495Z,94.29
2023-01-19T01:16:24.258Z,94.18
2023-01-19T01:16:35.070Z,94.18
2023-01-19T01:16:45.949Z,94.18
2023-01-19T01:16:56.709Z,94.08
2023-01-19T01:17:09.204Z,94.08
2023-01-19T01:17:19.985Z,94.04
2023-01-19T01:17:31.776Z,93.93
2023-01-19T01:17:42.563Z,93.93
2023-01-19T01:17:53.352Z,93.93
2023-01-19T01:18:04.081Z,93.93
2023-01-19T01:18:14.829Z,93.93
2023-01-19T01:18:25.581Z,93.93
2023-01-19T01:18:37.752Z,93.93
2023-01-19T01:18:48.550Z,93.93
2023-01-19T01:19:00.288Z,93.93
2023-01-19T01:19:12.056Z,93.93
2023-01-19T01:19:22.889Z,93.83
2023-01-19T01:19:33.746Z,93.83
2023-01-19T01:19:44.529Z,93.83
2023-01-19T01:19:55.276Z,93.72
2023-01-19T01:20:06.010Z,93.62
2023-01-19T01:20:16.868Z,93.51
2023-01-19T01:20:27.627Z,93.51
2023-01-19T01:20:39.378Z,93.41
2023-01-19T01:20:50.124Z,93.41
2023-01-19T01:21:00.907Z,93.30
2023-01-19T01:21:11.702Z,93.30
2023-01-19T01:21:22.441Z,93.19
2023-01-19T01:21:34.296Z,93.19
2023-01-19T01:21:45.070Z,93.19
2023-01-19T01:21:55.831Z,93.09
2023-01-19T01:22:06.636Z,93.09
2023-01-19T01:22:18.402Z,93.09
2023-01-19T01:22:31.553Z,92.99
2023-01-19T01:22:43.831Z,92.99
2023-01-19T01:22:55.598Z,92.99
2023-01-19T01:23:06.381Z,92.99
2023-01-19T01:23:17.132Z,92.88
2023-01-19T01:23:27.890Z,92.73
2023-01-19T01:23:40.441Z,92.73
2023-01-19T01:23:51.207Z,92.63
2023-01-19T01:24:01.952Z,92.63
2023-01-19T01:24:12.751Z,92.63
2023-01-19T01:24:24.468Z,92.52
2023-01-19T01:24:36.921Z,92.52
2023-01-19T01:24:49.371Z,92.52
2023-01-19T01:25:00.211Z,92.42
2023-01-19T01:25:12.032Z,92.31
2023-01-19T01:25:24.470Z,92.31
2023-01-19T01:25:38.198Z,92.21
2023-01-19T01:25:49.045Z,92.21
2023-01-19T01:25:59.800Z,92.21
2023-01-19T01:26:13.546Z,92.21
2023-01-19T01:26:27.059Z,92.21
2023-01-19T01:26:38.456Z,92.21
2023-01-19T01:26:49.218Z,92.21
2023-01-19T01:26:59.960Z,92.21
2023-01-19T01:27:11.618Z,92.21
2023-01-19T01:27:22.360Z,92.10
2023-01-19T01:27:34.841Z,92.10
2023-01-19T01:27:47.290Z,92.10
2023-01-19T01:27:58.020Z,92.10
2023-01-19T01:28:09.749Z,92.10
2023-01-19T01:28:22.711Z,92.10
2023-01-19T01:28:34.470Z,92.10
2023-01-19T01:28:47.692Z,92.10
2023-01-19T01:29:00.929Z,91.96
2023-01-19T01:29:11.662Z,91.96
2023-01-19T01:29:23.370Z,92.00
2023-01-19T01:29:34.368Z,91.96
2023-01-19T01:29:45.140Z,91.96
2023-01-19T01:29:56.890Z,91.85
2023-01-19T01:30:09.360Z,91.85
2023-01-19T01:30:20.180Z,91.85
2023-01-19T01:30:32.493Z,91.85
2023-01-19T01:30:43.253Z,91.74
2023-01-19T01:30:55.039Z,91.74
2023-01-19T01:31:05.802Z,91.74
2023-01-19T01:31:16.601Z,91.64
2023-01-19T01:31:29.585Z,91.64
2023-01-19T01:31:40.429Z,91.53
2023-01-19T01:31:51.260Z,91.43
2023-01-19T01:32:02.002Z,91.43
2023-01-19T01:32:13.754Z,91.33
2023-01-19T01:32:24.536Z,91.22
2023-01-19T01:32:35.320Z,91.22
2023-01-19T01:32:46.109Z,91.22
2023-01-19T01:32:58.657Z,91.11
2023-01-19T01:33:10.590Z,91.01
2023-01-19T01:33:41.113Z,91.01
2023-01-19T01:33:41.269Z,90.91
2023-01-19T01:33:53.511Z,90.80
2023-01-19T01:34:04.296Z,90.66
2023-01-19T01:34:15.115Z,90.69
2023-01-19T01:34:25.893Z,90.55
2023-01-19T01:34:36.663Z,90.55
2023-01-19T01:34:47.411Z,90.55
2023-01-19T01:34:58.221Z,90.55
2023-01-19T01:35:09.984Z,90.55
2023-01-19T01:35:20.711Z,90.55
2023-01-19T01:35:31.501Z,90.55
2023-01-19T01:35:44.023Z,90.55
2023-01-19T01:35:56.501Z,90.55
2023-01-19T01:36:07.267Z,90.44
2023-01-19T01:36:19.035Z,90.44
2023-01-19T01:36:29.800Z,90.44
2023-01-19T01:36:41.562Z,90.44
2023-01-19T01:36:53.294Z,90.44
2023-01-19T01:37:04.022Z,90.34
2023-01-19T01:37:14.789Z,90.34
2023-01-19T01:37:25.567Z,90.34
2023-01-19T01:37:36.324Z,90.23
2023-01-19T01:37:48.822Z,90.23
2023-01-19T01:37:59.624Z,90.23
2023-01-19T01:38:11.838Z,90.23
2023-01-19T01:38:22.642Z,90.12
2023-01-19T01:38:34.656Z,90.17
2023-01-19T01:38:45.517Z,90.12
2023-01-19T01:38:57.299Z,90.17
2023-01-19T01:39:09.033Z,90.27
2023-01-19T01:39:19.794Z,90.27
2023-01-19T01:39:31.571Z,90.17
2023-01-19T01:39:42.405Z,90.17
2023-01-19T01:39:53.221Z,90.17
2023-01-19T01:40:04.004Z,90.17
2023-01-19T01:40:14.763Z,90.17
2023-01-19T01:40:26.506Z,90.17
2023-01-19T01:40:38.283Z,90.17
2023-01-19T01:40:49.061Z,90.17
2023-01-19T01:40:59.852Z,90.17
2023-01-19T01:41:10.626Z,90.17
2023-01-19T01:41:22.038Z,90.17
2023-01-19T01:41:37.235Z,90.17
2023-01-19T01:41:49.690Z,90.17
2023-01-19T01:42:01.411Z,90.17
2023-01-19T01:42:12.142Z,90.17
2023-01-19T01:42:22.933Z,90.17
2023-01-19T01:42:35.194Z,90.17
2023-01-19T01:42:48.017Z,90.17
2023-01-19T01:43:00.788Z,90.17
2023-01-19T01:43:12.704Z,90.17
2023-01-19T01:43:25.747Z,90.17
2023-01-19T01:43:37.522Z,90.17
2023-01-19T01:43:49.331Z,90.17
2023-01-19T01:44:00.132Z,90.06
2023-01-19T01:44:13.758Z,90.06
2023-01-19T01:44:24.492Z,90.17
2023-01-19T01:44:36.999Z,90.17
2023-01-19T01:44:49.911Z,90.17
2023-01-19T01:45:02.312Z,90.17
2023-01-19T01:45:14.010Z,90.17
2023-01-19T01:45:24.755Z,90.17
2023-01-19T01:45:37.299Z,90.17
2023-01-19T01:45:48.120Z,90.17
2023-01-19T01:46:00.423Z,90.17
2023-01-19T01:46:12.753Z,90.21
2023-01-19T01:46:24.543Z,90.21
2023-01-19T01:46:36.835Z,90.21
2023-01-19T01:46:49.073Z,90.21
2023-01-19T01:46:59.834Z,90.21
2023-01-19T01:47:13.061Z,90.21
2023-01-19T01:47:25.523Z,90.21
2023-01-19T01:47:36.315Z,90.21
2023-01-19T01:47:50.057Z,90.21
2023-01-19T01:48:00.812Z,90.21
2023-01-19T01:48:11.583Z,90.21
2023-01-19T01:48:22.361Z,90.31
2023-01-19T01:48:33.112Z,90.31
2023-01-19T01:48:43.892Z,90.31
2023-01-19T01:48:55.714Z,90.42
2023-01-19T01:49:06.477Z,90.42
2023-01-19T01:49:17.232Z,90.53
2023-01-19T01:49:29.187Z,90.63
2023-01-19T01:49:41.383Z,90.73
2023-01-19T01:49:53.616Z,90.84
2023-01-19T01:50:05.326Z,90.84
2023-01-19T01:50:17.076Z,90.84
2023-01-19T01:50:28.854Z,90.88
2023-01-19T01:50:41.126Z,90.88
2023-01-19T01:50:53.856Z,90.88
2023-01-19T01:51:04.577Z,90.88
2023-01-19T01:51:17.042Z,90.88
2023-01-19T01:51:29.556Z,90.88
2023-01-19T01:51:40.334Z,90.78
2023-01-19T01:51:51.084Z,90.78
2023-01-19T01:52:02.775Z,90.78
2023-01-19T01:52:15.257Z,90.78
2023-01-19T01:52:26.055Z,90.78
2023-01-19T01:52:36.797Z,90.67
2023-01-19T01:53:07.433Z,90.67
2023-01-19T01:53:07.683Z,90.67
2023-01-19T01:53:19.857Z,90.67
2023-01-19T01:53:30.652Z,90.67
2023-01-19T01:53:43.447Z,90.67
2023-01-19T01:53:54.206Z,90.67
2023-01-19T01:54:04.985Z,90.56
2023-01-19T01:54:17.033Z,90.61
2023-01-19T01:54:27.878Z,90.61
2023-01-19T01:54:40.335Z,90.50
2023-01-19T01:54:51.102Z,90.50
2023-01-19T01:55:03.536Z,90.50
2023-01-19T01:55:14.316Z,90.50
2023-01-19T01:55:26.807Z,90.50
2023-01-19T01:55:37.584Z,90.50
2023-01-19T01:55:49.854Z,90.50
2023-01-19T01:56:00.645Z,90.50
2023-01-19T01:56:11.425Z,90.50
2023-01-19T01:56:23.700Z,90.50
2023-01-19T01:56:36.136Z,90.50
2023-01-19T01:56:48.863Z,90.40
2023-01-19T01:57:01.129Z,90.44
2023-01-19T01:57:12.904Z,90.55
2023-01-19T01:57:23.687Z,90.55
2023-01-19T01:57:34.525Z,90.55
2023-01-19T01:57:45.317Z,90.65
2023-01-19T01:57:56.097Z,90.75
2023-01-19T01:58:06.926Z,90.86
2023-01-19T01:58:17.679Z,91.07
2023-01-19T01:58:29.403Z,91.28
2023-01-19T01:58:40.217Z,91.39
2023-01-19T01:58:50.967Z,91.60
2023-01-19T01:59:01.720Z,91.70
2023-01-19T01:59:12.461Z,91.81
2023-01-19T01:59:24.165Z,91.91
2023-01-19T01:59:35.895Z,92.02
2023-01-19T01:59:48.391Z,92.02
2023-01-19T02:00:00.659Z,92.12
2023-01-19T02:00:11.483Z,92.12
2023-01-19T02:00:22.323Z,92.12
2023-01-19T02:00:33.126Z,92.12
2023-01-19T02:00:44.010Z,92.12
2023-01-19T02:00:58.374Z,92.12
2023-01-19T02:01:10.675Z,92.12
2023-01-19T02:01:21.602Z,92.16
2023-01-19T02:01:33.717Z,92.23
2023-01-19T02:01:44.695Z,92.16
2023-01-19T02:01:55.756Z,92.16
2023-01-19T02:02:07.794Z,92.16
2023-01-19T02:02:20.201Z,92.27
2023-01-19T02:02:30.988Z,92.27
2023-01-19T02:02:42.732Z,92.27
2023-01-19T02:02:53.508Z,92.27
2023-01-19T02:03:04.598Z,92.27
2023-01-19T02:03:15.537Z,92.27
2023-01-19T02:03:27.293Z,92.27
2023-01-19T02:03:39.069Z,92.27
2023-01-19T02:03:51.034Z,92.27
2023-01-19T02:04:04.277Z,92.27
2023-01-19T02:04:16.840Z,92.38
2023-01-19T02:04:27.607Z,92.48
2023-01-19T02:04:39.361Z,92.69
2023-01-19T02:04:50.158Z,92.80
2023-01-19T02:05:00.995Z,92.90
2023-01-19T02:05:11.767Z,93.01
2023-01-19T02:05:22.503Z,93.01
2023-01-19T02:05:34.255Z,93.11
2023-01-19T02:05:46.677Z,93.11
2023-01-19T02:05:58.906Z,93.11
2023-01-19T02:06:10.711Z,93.11
2023-01-19T02:06:21.457Z,93.11
2023-01-19T02:06:32.248Z,93.11
2023-01-19T02:06:44.487Z,93.11
2023-01-19T02:06:57.023Z,93.11
2023-01-19T02:07:10.783Z,93.05
2023-01-19T02:07:21.534Z,93.05
2023-01-19T02:07:32.398Z,92.94
2023-01-19T02:07:44.649Z,92.94
2023-01-19T02:07:55.407Z,92.84
2023-01-19T02:08:06.182Z,92.84
2023-01-19T02:08:16.992Z,92.84
2023-01-19T02:08:30.218Z,92.73
2023-01-19T02:08:41.038Z,92.73
2023-01-19T02:08:51.822Z,92.73
2023-01-19T02:09:04.045Z,92.73
2023-01-19T02:09:16.545Z,92.73
2023-01-19T02:09:27.298Z,92.73
2023-01-19T02:09:38.088Z,92.73
2023-01-19T02:09:50.588Z,92.63
2023-01-19T02:10:03.575Z,92.63
2023-01-19T02:10:14.347Z,92.63
2023-01-19T02:10:25.107Z,92.63
2023-01-19T02:10:37.589Z,92.52
2023-01-19T02:10:50.019Z,92.57
2023-01-19T02:11:01.735Z,92.57
2023-01-19T02:11:13.982Z,92.67
2023-01-19T02:11:25.704Z,92.67
2023-01-19T02:11:37.455Z,92.67
2023-01-19T02:11:48.189Z,92.67
2023-01-19T02:11:58.978Z,92.67
2023-01-19T02:12:09.719Z,92.67
2023-01-19T02:12:20.528Z,92.67
2023-01-19T02:12:31.259Z,92.67
2023-01-19T02:12:42.023Z,92.67
2023-01-19T02:12:52.807Z,92.77
2023-01-19T02:13:05.045Z,92.77
2023-01-19T02:13:17.404Z,92.77
2023-01-19T02:13:28.138Z,92.77
2023-01-19T02:13:39.042Z,92.67
2023-01-19T02:13:49.838Z,92.67
2023-01-19T02:14:00.625Z,92.67
2023-01-19T02:14:11.416Z,92.67
2023-01-19T02:14:23.891Z,92.67
2023-01-19T02:14:34.671Z,92.67
2023-01-19T02:14:46.426Z,92.67
2023-01-19T02:14:57.248Z,92.77
2023-01-19T02:15:08.995Z,92.88
2023-01-19T02:15:20.784Z,92.99
2023-01-19T02:15:31.578Z,93.19
2023-01-19T02:15:43.317Z,93.30
2023-01-19T02:15:54.083Z,93.30
2023-01-19T02:16:06.553Z,93.41
2023-01-19T02:16:17.393Z,93.45
2023-01-19T02:16:30.687Z,93.55
2023-01-19T02:16:41.502Z,93.55
2023-01-19T02:16:53.332Z,93.55
2023-01-19T02:17:05.816Z,93.55
2023-01-19T02:17:18.071Z,93.66
2023-01-19T02:17:28.844Z,93.66
2023-01-19T02:17:39.661Z,93.66
2023-01-19T02:17:50.417Z,93.66
2023-01-19T02:18:02.161Z,93.77
2023-01-19T02:18:12.937Z,93.77
2023-01-19T02:18:23.749Z,93.77
2023-01-19T02:18:34.590Z,93.77
2023-01-19T02:18:45.340Z,93.77
2023-01-19T02:18:57.061Z,93.77
2023-01-19T02:19:07.877Z,93.77
2023-01-19T02:19:19.672Z,93.77
2023-01-19T02:19:30.440Z,93.87
2023-01-19T02:19:42.187Z,93.98
2023-01-19T02:19:52.919Z,94.08
2023-01-19T02:20:03.706Z,94.19
2023-01-19T02:20:14.455Z,94.19
2023-01-19T02:20:25.199Z,94.29
2023-01-19T02:20:35.969Z,94.29
2023-01-19T02:20:46.819Z,94.40
2023-01-19T02:20:59.248Z,94.40
2023-01-19T02:21:11.016Z,94.40
2023-01-19T02:21:21.738Z,94.51
2023-01-19T02:21:32.513Z,94.51
2023-01-19T02:21:44.824Z,94.51
2023-01-19T02:21:57.028Z,94.51
2023-01-19T02:22:08.771Z,94.61
2023-01-19T02:22:21.264Z,94.61
2023-01-19T02:22:32.004Z,94.71
2023-01-19T02:22:42.788Z,94.71
2023-01-19T02:22:53.522Z,94.82
2023-01-19T02:23:04.259Z,94.82
2023-01-19T02:23:15.979Z,94.82
2023-01-19T02:23:29.208Z,94.82
2023-01-19T02:23:40.050Z,94.82
2023-01-19T02:23:50.823Z,94.82
2023-01-19T02:24:01.584Z,94.82
2023-01-19T02:24:12.324Z,94.71
2023-01-19T02:24:23.074Z,94.71
2023-01-19T02:24:34.768Z,94.71
2023-01-19T02:24:47.257Z,94.71
2023-01-19T02:24:59.700Z,94.71
2023-01-19T02:25:10.440Z,94.71
2023-01-19T02:25:22.953Z,94.82
2023-01-19T02:25:36.380Z,94.93
2023-01-19T02:25:47.168Z,94.93
2023-01-19T02:25:59.639Z,94.93
2023-01-19T02:26:12.112Z,94.93
2023-01-19T02:26:23.868Z,94.93
2023-01-19T02:26:34.655Z,94.93
2023-01-19T02:26:47.119Z,94.93
2023-01-19T02:26:57.868Z,94.93
2023-01-19T02:27:09.642Z,94.93
2023-01-19T02:27:20.389Z,94.93
2023-01-19T02:27:33.520Z,94.93
2023-01-19T02:27:45.226Z,94.82
2023-01-19T02:27:56.932Z,94.82
2023-01-19T02:28:07.707Z,94.82
2023-01-19T02:28:19.252Z,94.82
2023-01-19T02:28:30.024Z,94.82
2023-01-19T02:28:40.783Z,94.82